createdAt,value
2022-11-28T00:01:22.307Z,8.23
2022-11-28T00:03:48.983Z,7.97
2022-11-28T00:06:15.969Z,6.32
2022-11-28T00:08:42.897Z,5.78
2022-11-28T00:11:10.916Z,6.20
2022-11-28T00:13:37.869Z,8.48
2022-11-28T00:16:06.121Z,7.95
2022-11-28T00:18:32.991Z,9.35
2022-11-28T00:21:07.327Z,6.70
2022-11-28T00:23:34.107Z,7.78
2022-11-28T00:26:15.037Z,6.65
2022-11-28T00:28:41.719Z,7.05
2022-11-28T00:31:13.171Z,5.35
2022-11-28T00:33:39.801Z,7.28
2022-11-28T00:36:06.811Z,6.57
2022-11-28T00:38:33.408Z,6.65
2022-11-28T00:41:05.531Z,6.85
2022-11-28T00:43:32.402Z,8.88
2022-11-28T00:45:59.204Z,7.60
2022-11-28T00:48:26.346Z,6.97
2022-11-28T00:50:53.256Z,8.13
2022-11-28T00:53:19.851Z,6.50
2022-11-28T00:55:46.468Z,7.97
2022-11-28T00:58:13.280Z,7.38
2022-11-28T01:00:39.982Z,8.18
2022-11-28T01:03:06.604Z,8.02
2022-11-28T01:05:33.235Z,7.45
2022-11-28T01:07:59.934Z,7.82
2022-11-28T01:10:27.284Z,8.50
2022-11-28T01:12:53.958Z,10.23
2022-11-28T01:15:20.536Z,7.45
2022-11-28T01:17:47.118Z,8.02
2022-11-28T01:20:13.970Z,9.30
2022-11-28T01:22:40.577Z,9.43
2022-11-28T01:25:07.431Z,8.55
2022-11-28T01:27:34.028Z,10.73
2022-11-28T01:30:00.597Z,10.50
2022-11-28T01:32:27.341Z,9.82
2022-11-28T01:34:53.908Z,13.52
2022-11-28T01:37:20.492Z,9.05
2022-11-28T01:39:47.114Z,9.00
2022-11-28T01:42:17.834Z,9.32
2022-11-28T01:44:50.131Z,9.48
2022-11-28T01:47:21.172Z,8.85
2022-11-28T01:49:47.823Z,9.35
2022-11-28T01:52:16.592Z,6.57
2022-11-28T01:54:46.091Z,8.55
2022-11-28T01:57:15.965Z,6.47
2022-11-28T01:59:47.901Z,6.07
2022-11-28T02:02:37.387Z,8.52
2022-11-28T02:05:04.573Z,9.13
2022-11-28T02:07:31.273Z,7.78
2022-11-28T02:09:57.844Z,6.03
2022-11-28T02:12:33.554Z,5.65
2022-11-28T02:15:51.733Z,6.55
2022-11-28T02:18:38.568Z,6.10
2022-11-28T02:21:32.338Z,7.38
2022-11-28T02:24:20.753Z,5.38
2022-11-28T02:26:59.400Z,6.65
2022-11-28T02:29:28.920Z,8.02
2022-11-28T02:32:13.656Z,7.40
2022-11-28T02:34:46.852Z,5.22
2022-11-28T02:37:34.700Z,5.53
2022-11-28T02:40:18.245Z,8.68
2022-11-28T02:43:10.424Z,7.95
2022-11-28T02:45:39.903Z,5.40
2022-11-28T02:48:14.067Z,8.45
2022-11-28T02:50:51.193Z,8.38
2022-11-28T02:53:20.523Z,9.77
2022-11-28T02:55:47.112Z,7.28
2022-11-28T02:58:13.732Z,7.28
2022-11-28T03:00:43.878Z,7.50
2022-11-28T03:03:41.504Z,9.20
2022-11-28T03:06:48.261Z,8.65
2022-11-28T03:09:27.001Z,7.60
2022-11-28T03:12:07.390Z,8.05
2022-11-28T03:14:55.234Z,8.35
2022-11-28T03:17:37.815Z,7.97
2022-11-28T03:20:38.368Z,7.68
2022-11-28T03:23:31.174Z,6.30
2022-11-28T03:26:06.021Z,5.82
2022-11-28T03:28:43.243Z,5.75
2022-11-28T03:31:14.952Z,7.20
2022-11-28T03:33:47.838Z,6.53
2022-11-28T03:36:24.745Z,6.50
2022-11-28T03:38:54.894Z,6.25
2022-11-28T03:41:25.833Z,5.82
2022-11-28T03:43:54.140Z,6.25
2022-11-28T03:46:22.210Z,5.32
2022-11-28T03:48:50.989Z,6.95
2022-11-28T03:51:25.386Z,7.28
2022-11-28T03:53:56.712Z,7.47
2022-11-28T03:56:29.058Z,6.47
2022-11-28T03:59:00.107Z,5.82
2022-11-28T04:01:40.818Z,7.70
2022-11-28T04:04:30.735Z,9.07
2022-11-28T04:06:59.330Z,5.50
2022-11-28T04:09:41.864Z,6.85
2022-11-28T04:12:33.606Z,6.13
2022-11-28T04:15:25.196Z,6.68
2022-11-28T04:18:07.088Z,8.48
2022-11-28T04:20:36.826Z,5.63
2022-11-28T04:23:07.302Z,6.43
2022-11-28T04:25:35.673Z,5.20
2022-11-28T04:28:05.366Z,5.78
2022-11-28T04:30:31.968Z,8.85
2022-11-28T04:33:01.359Z,6.00
2022-11-28T04:35:32.788Z,7.63
2022-11-28T04:37:59.679Z,8.35
2022-11-28T04:40:27.033Z,5.30
2022-11-28T04:42:55.981Z,5.63
2022-11-28T04:45:28.373Z,7.65
2022-11-28T04:47:55.102Z,6.72
2022-11-28T04:50:22.355Z,11.85
2022-11-28T04:52:58.610Z,7.78
2022-11-28T04:56:01.660Z,6.68
2022-11-28T04:58:45.265Z,7.97
2022-11-28T05:01:14.835Z,6.65
2022-11-28T05:03:42.914Z,6.80
2022-11-28T05:06:09.817Z,6.90
2022-11-28T05:08:36.394Z,7.07
2022-11-28T05:11:03.016Z,8.68
2022-11-28T05:13:29.588Z,6.43
2022-11-28T05:15:56.163Z,8.35
2022-11-28T05:18:22.750Z,7.25
2022-11-28T05:20:49.280Z,6.65
2022-11-28T05:23:15.851Z,7.10
2022-11-28T05:25:42.409Z,8.18
2022-11-28T05:28:09.107Z,9.10
2022-11-28T05:30:35.684Z,6.53
2022-11-28T05:33:02.847Z,7.90
2022-11-28T05:35:29.515Z,6.80
2022-11-28T05:37:56.085Z,7.47
2022-11-28T05:40:22.810Z,6.35
2022-11-28T05:42:49.372Z,9.65
2022-11-28T05:45:15.925Z,5.90
2022-11-28T05:47:42.492Z,7.28
2022-11-28T05:50:09.312Z,7.38
2022-11-28T05:52:35.876Z,6.80
2022-11-28T05:55:02.413Z,5.45
2022-11-28T05:57:30.089Z,8.45
2022-11-28T05:59:57.437Z,6.95
2022-11-28T06:02:24.130Z,6.38
2022-11-28T06:04:50.797Z,7.00
2022-11-28T06:07:18.807Z,6.40
2022-11-28T06:09:45.730Z,8.15
2022-11-28T06:12:12.378Z,6.63
2022-11-28T06:14:39.011Z,9.77
2022-11-28T06:17:05.580Z,5.97
2022-11-28T06:19:32.135Z,6.07
2022-11-28T06:21:58.706Z,7.35
2022-11-28T06:24:25.264Z,6.38
2022-11-28T06:26:51.822Z,7.55
2022-11-28T06:29:18.371Z,7.07
2022-11-28T06:31:45.007Z,6.30
2022-11-28T06:34:13.025Z,9.23
2022-11-28T06:36:39.794Z,6.07
2022-11-28T06:39:06.405Z,6.75
2022-11-28T06:41:32.965Z,6.78
2022-11-28T06:43:59.614Z,8.38
2022-11-28T06:46:26.262Z,10.63
2022-11-28T06:48:53.424Z,8.23
2022-11-28T06:51:20.395Z,7.60
2022-11-28T06:53:47.014Z,7.65
2022-11-28T06:56:15.851Z,8.23
2022-11-28T06:58:42.767Z,9.25
2022-11-28T07:01:18.132Z,7.60
2022-11-28T07:03:45.021Z,9.05
2022-11-28T07:06:12.243Z,8.38
2022-11-28T07:08:38.892Z,6.80
2022-11-28T07:11:19.762Z,7.43
2022-11-28T07:13:46.806Z,7.55
2022-11-28T07:16:18.166Z,6.40
2022-11-28T07:18:45.024Z,6.57
2022-11-28T07:21:12.100Z,7.20
2022-11-28T07:23:38.678Z,8.20
2022-11-28T07:26:05.629Z,5.65
2022-11-28T07:28:32.592Z,8.82
2022-11-28T07:31:05.772Z,8.45
2022-11-28T07:33:32.741Z,9.27
2022-11-28T07:36:03.224Z,8.63
2022-11-28T07:38:29.977Z,13.00
2022-11-28T07:41:06.105Z,9.25
2022-11-28T07:43:33.423Z,9.07
2022-11-28T07:46:01.593Z,12.60
2022-11-28T07:48:28.472Z,10.13
2022-11-28T07:50:55.048Z,9.48
2022-11-28T07:53:22.166Z,8.40
2022-11-28T07:55:48.698Z,9.65
2022-11-28T07:58:15.261Z,9.35
2022-11-28T08:00:41.870Z,8.00
2022-11-28T08:03:08.468Z,6.82
2022-11-28T08:05:35.089Z,8.13
2022-11-28T08:08:01.677Z,7.47
2022-11-28T08:10:28.371Z,9.80
2022-11-28T08:12:55.004Z,8.75
2022-11-28T08:15:21.560Z,8.82
2022-11-28T08:17:48.170Z,8.15
2022-11-28T08:20:14.732Z,9.05
2022-11-28T08:22:41.297Z,8.40
2022-11-28T08:25:08.293Z,10.82
2022-11-28T08:27:34.947Z,11.40
2022-11-28T08:30:01.585Z,9.18
2022-11-28T08:32:30.071Z,9.90
2022-11-28T08:34:56.664Z,13.20
2022-11-28T08:37:23.237Z,9.05
2022-11-28T08:39:49.815Z,9.73
2022-11-28T08:42:16.382Z,10.52
2022-11-28T08:44:42.944Z,8.65
2022-11-28T08:47:09.506Z,11.48
2022-11-28T08:49:39.482Z,10.70
2022-11-28T08:52:06.166Z,9.82
2022-11-28T08:54:32.749Z,8.68
2022-11-28T08:56:59.756Z,10.88
2022-11-28T08:59:26.280Z,10.98
2022-11-28T09:01:53.849Z,9.43
2022-11-28T09:04:21.676Z,6.75
2022-11-28T09:06:48.328Z,9.07
2022-11-28T09:09:15.074Z,8.63
2022-11-28T09:11:42.083Z,8.77
2022-11-28T09:14:08.755Z,9.35
2022-11-28T09:16:35.543Z,11.88
2022-11-28T09:19:02.283Z,9.25
2022-11-28T09:21:28.914Z,9.85
2022-11-28T09:23:56.165Z,7.57
2022-11-28T09:26:24.632Z,7.68
2022-11-28T09:28:51.596Z,9.07
2022-11-28T09:31:18.665Z,8.13
2022-11-28T09:33:46.330Z,6.20
2022-11-28T09:36:20.747Z,7.13
2022-11-28T09:38:47.400Z,8.23
2022-11-28T09:41:49.386Z,8.85
2022-11-28T09:44:25.245Z,8.45
2022-11-28T09:46:54.857Z,7.88
2022-11-28T09:49:44.887Z,7.45
2022-11-28T09:52:17.604Z,8.38
2022-11-28T09:55:02.244Z,7.18
2022-11-28T09:57:42.900Z,9.23
2022-11-28T10:00:23.961Z,9.65
2022-11-28T10:03:00.098Z,8.60
2022-11-28T10:05:54.560Z,9.95
2022-11-28T10:08:36.264Z,10.73
2022-11-28T10:11:06.445Z,7.88
2022-11-28T10:14:07.207Z,7.40
2022-11-28T10:16:52.070Z,8.90
2022-11-28T10:19:46.563Z,12.73
2022-11-28T10:22:14.101Z,7.82
2022-11-28T10:24:55.334Z,8.88
2022-11-28T10:27:26.727Z,9.98
2022-11-28T10:30:01.251Z,10.38
2022-11-28T10:32:33.323Z,12.07
2022-11-28T10:35:20.878Z,9.70
2022-11-28T10:37:50.467Z,7.28
2022-11-28T10:40:28.356Z,7.47
2022-11-28T10:43:14.136Z,6.82
2022-11-28T10:46:14.259Z,8.77
2022-11-28T10:48:52.148Z,10.52
2022-11-28T10:51:44.171Z,6.80
2022-11-28T10:54:11.059Z,9.45
2022-11-28T10:56:53.494Z,8.40
2022-11-28T10:59:20.137Z,7.93
2022-11-28T11:01:50.175Z,8.45
2022-11-28T11:04:26.815Z,8.95
2022-11-28T11:07:16.304Z,7.80
2022-11-28T11:09:46.109Z,9.77
2022-11-28T11:12:20.914Z,9.55
2022-11-28T11:14:47.728Z,8.40
2022-11-28T11:17:36.258Z,6.85
2022-11-28T11:20:28.359Z,13.32
2022-11-28T11:22:57.306Z,7.03
2022-11-28T11:25:33.125Z,9.23
2022-11-28T11:28:01.966Z,7.03
2022-11-28T11:30:28.697Z,8.38
2022-11-28T11:32:56.749Z,10.23
2022-11-28T11:35:31.007Z,7.63
2022-11-28T11:38:20.510Z,8.52
2022-11-28T11:40:48.902Z,7.03
2022-11-28T11:43:32.638Z,7.63
2022-11-28T11:46:15.919Z,10.23
2022-11-28T11:51:26.245Z,7.03
2022-11-28T11:54:05.662Z,7.78
2022-11-28T11:56:38.103Z,9.25
2022-11-28T11:59:27.038Z,13.32
2022-11-28T12:01:58.025Z,8.07
2022-11-28T12:04:45.807Z,9.13
2022-11-28T12:07:39.092Z,7.55
2022-11-28T12:10:07.089Z,10.50
2022-11-28T12:12:36.549Z,8.32
2022-11-28T12:15:03.380Z,9.05
2022-11-28T12:17:59.164Z,15.13
2022-11-28T12:20:47.286Z,12.30
2022-11-28T12:23:35.695Z,9.00
2022-11-28T12:26:28.993Z,9.10
2022-11-28T12:29:14.107Z,11.52
2022-11-28T12:31:43.764Z,9.82
2022-11-28T12:34:19.510Z,8.32
2022-11-28T12:37:29.424Z,8.73
2022-11-28T12:40:22.903Z,9.20
2022-11-28T12:42:52.420Z,7.32
2022-11-28T12:45:39.599Z,8.88
2022-11-28T12:48:40.232Z,7.72
2022-11-28T12:51:16.917Z,10.15
2022-11-28T12:53:52.559Z,8.90
2022-11-28T12:56:43.315Z,9.38
2022-11-28T12:59:30.545Z,8.77
2022-11-28T13:02:20.987Z,9.50
2022-11-28T13:05:18.669Z,13.10
2022-11-28T13:08:12.268Z,10.05
2022-11-28T13:13:13.274Z,9.82
2022-11-28T13:15:58.144Z,7.85
2022-11-28T13:18:41.633Z,9.93
2022-11-28T13:21:15.762Z,10.95
2022-11-28T13:23:47.255Z,10.20
2022-11-28T13:26:35.355Z,8.98
2022-11-28T13:29:22.107Z,9.15
2022-11-28T13:31:51.227Z,8.55
2022-11-28T13:34:18.522Z,10.30
2022-11-28T13:40:00.034Z,10.02
2022-11-28T13:43:07.768Z,9.93
2022-11-28T13:45:39.174Z,11.05
2022-11-28T13:51:33.503Z,9.70
2022-11-28T13:54:26.752Z,9.35
2022-11-28T13:57:05.290Z,10.23
2022-11-28T13:59:31.828Z,9.25
2022-11-28T14:02:00.384Z,9.32
2022-11-28T14:04:27.085Z,9.13
2022-11-28T14:06:59.207Z,8.02
2022-11-28T14:10:04.133Z,10.80
2022-11-28T14:13:11.805Z,11.18
2022-11-28T14:15:47.494Z,13.65
2022-11-28T14:18:54.522Z,12.30
2022-11-28T14:21:24.658Z,12.00
2022-11-28T14:24:05.965Z,10.55
2022-11-28T14:26:34.706Z,12.30
2022-11-28T14:29:01.816Z,13.88
2022-11-28T14:31:36.854Z,8.50
2022-11-28T14:34:42.145Z,13.50
2022-11-28T14:37:21.380Z,9.80
2022-11-28T14:39:49.373Z,8.18
2022-11-28T14:42:36.713Z,9.52
2022-11-28T14:45:23.906Z,11.05
2022-11-28T14:48:19.917Z,12.73
2022-11-28T14:50:55.956Z,11.50
2022-11-28T14:53:38.069Z,13.48
2022-11-28T14:56:13.637Z,13.82
2022-11-28T14:58:40.231Z,12.85
2022-11-28T15:01:10.480Z,13.43
2022-11-28T15:03:43.074Z,11.88
2022-11-28T15:06:20.989Z,14.32
2022-11-28T15:09:20.921Z,13.60
2022-11-28T15:12:08.276Z,14.60
2022-11-28T15:14:35.315Z,14.07
2022-11-28T15:17:04.277Z,12.45
2022-11-28T15:19:31.842Z,10.85
2022-11-28T15:21:58.518Z,12.82
2022-11-28T15:24:37.816Z,12.68
2022-11-28T15:27:07.243Z,14.90
2022-11-28T15:29:34.438Z,14.90
2022-11-28T15:32:01.264Z,14.05
2022-11-28T15:34:32.303Z,12.00
2022-11-28T15:37:03.726Z,12.75
2022-11-28T15:39:35.938Z,13.05
2022-11-28T15:42:04.604Z,17.53
2022-11-28T15:44:31.464Z,15.77
2022-11-28T15:46:58.124Z,19.40
2022-11-28T15:49:27.210Z,15.73
2022-11-28T15:51:55.190Z,14.02
2022-11-28T15:54:33.532Z,19.48
2022-11-28T15:57:00.432Z,20.80
2022-11-28T15:59:27.207Z,17.92
2022-11-28T16:01:59.157Z,16.88
2022-11-28T16:04:26.095Z,16.15
2022-11-28T16:06:53.721Z,19.05
2022-11-28T16:09:20.263Z,16.05
2022-11-28T16:11:51.113Z,16.75
2022-11-28T16:14:33.157Z,19.52
2022-11-28T16:17:01.733Z,19.08
2022-11-28T16:19:35.066Z,21.15
2022-11-28T16:22:06.133Z,17.83
2022-11-28T16:24:41.694Z,17.50
2022-11-28T16:27:36.433Z,15.00
2022-11-28T16:30:23.449Z,15.15
2022-11-28T16:32:51.181Z,16.30
2022-11-28T16:35:32.665Z,19.45
2022-11-28T16:38:16.138Z,27.60
2022-11-28T16:40:42.911Z,23.02
2022-11-28T16:43:33.116Z,21.55
2022-11-28T16:46:01.205Z,20.83
2022-11-28T16:48:30.024Z,19.17
2022-11-28T16:51:02.558Z,20.50
2022-11-28T16:53:48.475Z,21.05
2022-11-28T16:56:30.080Z,19.92
2022-11-28T16:59:17.513Z,21.00
2022-11-28T17:01:45.723Z,21.58
2022-11-28T17:04:24.295Z,22.85
2022-11-28T17:06:52.548Z,23.10
2022-11-28T17:09:19.311Z,26.40
2022-11-28T17:12:19.277Z,18.48
2022-11-28T17:14:45.912Z,19.27
2022-11-28T17:17:16.480Z,21.60
2022-11-28T17:19:43.540Z,21.70
2022-11-28T17:22:19.062Z,21.00
2022-11-28T17:24:45.734Z,37.13
2022-11-28T17:27:12.806Z,30.42
2022-11-28T17:29:39.504Z,23.05
2022-11-28T17:32:06.384Z,22.95
2022-11-28T17:34:34.241Z,16.70
2022-11-28T17:37:01.914Z,20.00
2022-11-28T17:39:28.891Z,20.92
2022-11-28T17:41:57.059Z,20.45
2022-11-28T17:44:34.377Z,17.25
2022-11-28T17:47:02.002Z,22.60
2022-11-28T17:49:29.064Z,20.02
2022-11-28T17:51:56.112Z,23.30
2022-11-28T17:54:23.792Z,29.30
2022-11-28T17:56:51.315Z,29.52
2022-11-28T17:59:20.021Z,28.17
2022-11-28T18:01:46.812Z,27.00
2022-11-28T18:04:13.402Z,25.60
2022-11-28T18:06:43.401Z,24.42
2022-11-28T18:09:12.348Z,22.75
2022-11-28T18:11:39.592Z,21.52
2022-11-28T18:14:06.317Z,20.02
2022-11-28T18:16:33.003Z,19.95
2022-11-28T18:18:59.882Z,16.98
2022-11-28T18:21:26.818Z,18.02
2022-11-28T18:23:54.572Z,17.60
2022-11-28T18:26:23.770Z,20.75
2022-11-28T18:28:50.710Z,18.75
2022-11-28T18:31:18.503Z,22.27
2022-11-28T18:33:46.666Z,19.05
2022-11-28T18:36:21.123Z,18.17
2022-11-28T18:38:47.842Z,18.42
2022-11-28T18:41:16.085Z,21.67
2022-11-28T18:43:43.231Z,17.95
2022-11-28T18:46:11.732Z,19.88
2022-11-28T18:48:40.866Z,19.45
2022-11-28T18:51:11.420Z,20.80
2022-11-28T18:53:38.521Z,20.77
2022-11-28T18:56:06.406Z,23.52
2022-11-28T18:58:34.857Z,21.23
2022-11-28T19:01:09.270Z,18.60
2022-11-28T19:03:37.261Z,17.63
2022-11-28T19:06:05.701Z,19.83
2022-11-28T19:08:32.894Z,24.00
2022-11-28T19:11:10.908Z,22.58
2022-11-28T19:13:38.410Z,21.23
2022-11-28T19:16:09.747Z,20.25
2022-11-28T19:18:37.487Z,20.60
2022-11-28T19:21:08.465Z,22.65
2022-11-28T19:23:35.783Z,18.70
2022-11-28T19:26:12.758Z,23.25
2022-11-28T19:28:40.991Z,20.63
2022-11-28T19:31:17.214Z,23.50
2022-11-28T19:33:44.609Z,20.67
2022-11-28T19:36:13.454Z,21.55
2022-11-28T19:38:41.621Z,23.55
2022-11-28T19:41:17.035Z,21.77
2022-11-28T19:43:44.739Z,21.45
2022-11-28T19:46:12.680Z,22.50
2022-11-28T19:48:41.038Z,20.63
2022-11-28T19:51:09.006Z,20.58
2022-11-28T19:53:40.397Z,24.40
2022-11-28T19:56:09.282Z,23.88
2022-11-28T19:58:36.656Z,26.45
2022-11-28T20:01:08.943Z,26.17
2022-11-28T20:03:36.982Z,23.35
2022-11-28T20:06:15.007Z,27.73
2022-11-28T20:08:42.204Z,27.77
2022-11-28T20:11:20.240Z,38.67
2022-11-28T20:13:47.877Z,28.77
2022-11-28T20:16:16.653Z,27.85
2022-11-28T20:18:44.408Z,30.10
2022-11-28T20:21:13.755Z,28.25
2022-11-28T20:23:45.103Z,28.25
2022-11-28T20:26:13.185Z,30.10
2022-11-28T20:28:41.494Z,28.73
2022-11-28T20:31:17.896Z,27.63
2022-11-28T20:33:44.515Z,25.85
2022-11-28T20:36:13.711Z,31.05
2022-11-28T20:38:40.312Z,30.10
2022-11-28T20:41:08.853Z,30.33
2022-11-28T20:43:37.746Z,33.30
2022-11-28T20:46:13.568Z,32.78
2022-11-28T20:48:40.522Z,34.78
2022-11-28T20:51:14.203Z,26.60
2022-11-28T20:53:43.562Z,29.95
2022-11-28T20:56:14.060Z,29.42
2022-11-28T20:58:41.004Z,31.70
2022-11-28T21:01:07.860Z,34.00
2022-11-28T21:03:34.632Z,29.80
2022-11-28T21:06:01.813Z,30.30
2022-11-28T21:08:31.366Z,28.95
2022-11-28T21:10:58.012Z,32.40
2022-11-28T21:13:24.701Z,31.08
2022-11-28T21:15:52.059Z,38.30
2022-11-28T21:18:18.672Z,32.13
2022-11-28T21:20:46.573Z,39.67
2022-11-28T21:23:14.063Z,39.83
2022-11-28T21:25:41.506Z,35.75
2022-11-28T21:28:09.161Z,29.67
2022-11-28T21:30:43.631Z,33.90
2022-11-28T21:33:11.451Z,35.22
2022-11-28T21:35:39.243Z,26.88
2022-11-28T21:38:06.310Z,29.48
2022-11-28T21:40:33.085Z,32.20
2022-11-28T21:42:59.724Z,28.38
2022-11-28T21:45:26.467Z,30.85
2022-11-28T21:47:53.063Z,25.27
2022-11-28T21:50:19.639Z,32.10
2022-11-28T21:52:46.224Z,31.55
2022-11-28T21:55:12.783Z,32.88
2022-11-28T21:57:42.146Z,29.08
2022-11-28T22:00:25.600Z,26.33
2022-11-28T22:03:02.941Z,26.27
2022-11-28T22:05:32.468Z,27.85
2022-11-28T22:07:59.078Z,27.85
2022-11-28T22:10:25.870Z,28.50
2022-11-28T22:12:53.737Z,25.73
2022-11-28T22:15:22.083Z,26.27
2022-11-28T22:17:48.661Z,25.67
2022-11-28T22:20:15.242Z,30.70
2022-11-28T22:22:41.856Z,24.33
2022-11-28T22:25:08.499Z,29.23
2022-11-28T22:27:37.936Z,27.60
2022-11-28T22:30:05.703Z,33.55
2022-11-28T22:32:32.311Z,30.50
2022-11-28T22:34:58.884Z,30.75
2022-11-28T22:37:25.456Z,32.15
2022-11-28T22:39:51.979Z,27.60
2022-11-28T22:42:18.574Z,27.85
2022-11-28T22:44:45.283Z,30.40
2022-11-28T22:47:11.968Z,34.33
2022-11-28T22:49:38.529Z,26.02
2022-11-28T22:52:05.163Z,29.00
2022-11-28T22:54:31.841Z,26.38
2022-11-28T22:56:58.405Z,25.38
2022-11-28T22:59:24.969Z,27.00
2022-11-28T23:01:51.653Z,23.88
2022-11-28T23:04:18.447Z,29.60
2022-11-28T23:06:45.106Z,29.10
2022-11-28T23:09:12.825Z,27.77
2022-11-28T23:11:39.738Z,27.05
2022-11-28T23:14:06.678Z,30.48
2022-11-28T23:16:39.239Z,26.88
2022-11-28T23:19:08.211Z,29.27
2022-11-28T23:21:36.573Z,29.27
2022-11-28T23:24:03.287Z,32.85
2022-11-28T23:26:32.333Z,27.63
2022-11-28T23:29:00.689Z,32.72
2022-11-28T23:31:31.527Z,31.15
2022-11-28T23:33:58.433Z,26.33
2022-11-28T23:36:27.032Z,27.17
2022-11-28T23:38:58.208Z,29.20
2022-11-28T23:41:25.567Z,25.05
2022-11-28T23:43:52.162Z,25.73
2022-11-28T23:46:19.546Z,27.85
2022-11-28T23:48:46.828Z,28.98
2022-11-28T23:51:15.184Z,24.50
2022-11-28T23:53:42.057Z,23.90
2022-11-28T23:56:11.609Z,25.52
2022-11-28T23:58:38.408Z,27.38
